CheckWX is a tool to help pilots better visualize weather data.  It is not intended as a substitute for an official pre-flight weather briefing.

19:56:46 UTC

SKCC TAF
Camilo Daza International Airport
Cúcuta, Colombia
TAF SKCC 251630Z 2518/2618 16018KT 9999 SCT020 SCT090 TEMPO 2520/2523 5000 TSRA SCT018CB TEMPO 2600/2603 6000 RA SCT015CB BECMG 2603/2605 15006KT TEMPO 2609/2612 5000 BCFG SCT010 TX34/2519Z TN25/2611Z

Jun-25@
18:00 UTC

Jun-25 @ 18:00 UTC

Jun-26@
03:00 UTC

Jun-26 @ 03:00 UTC

TAF SKCC 251630Z 2518/2618 16018KT 9999 SCT020 SCT090
Wind
  • 160° at 18 KTS
Cloud Levels
  • Scattered at 2,000' AGL
  • Scattered at 9,000' AGL

Jun-25@
20:00 UTC

Jun-25 @ 20:00 UTC

Jun-25@
23:00 UTC

Jun-25 @ 23:00 UTC

TEMPO 2520/2523 5000 TSRA SCT018CB

Temporary

Temporary Changes expected for less than half the time period

Conditions
Thunderstorm, Rain
Cloud Levels
  • Scattered at 1,800' AGL

Jun-26@
00:00 UTC

Jun-26 @ 00:00 UTC

Jun-26@
03:00 UTC

Jun-26 @ 03:00 UTC

TEMPO 2600/2603 6000 RA SCT015CB

Temporary

Temporary Changes expected for less than half the time period

Conditions
Rain
Cloud Levels
  • Scattered at 1,500' AGL

Jun-26@
03:00 UTC

Jun-26 @ 03:00 UTC

Jun-26@
18:00 UTC

Jun-26 @ 18:00 UTC

BECMG 2603/2605 15006KT

Becoming

Becoming Conditions expected by Wed, Jun 26, 2019 @ 05:00 UTC

Wind
  • 150° at 6 KTS
Cloud Levels
  • Scattered at 2,000' AGL
  • Scattered at 9,000' AGL

Jun-26@
09:00 UTC

Jun-26 @ 09:00 UTC

Jun-26@
12:00 UTC

Jun-26 @ 12:00 UTC

TEMPO 2609/2612 5000 BCFG SCT010 TX34/2519Z TN25/2611Z

Temporary

Temporary Changes expected for less than half the time period

Conditions
Patches of Fog
Cloud Levels
  • Scattered at 1,000' AGL